createdAt,value
2018-12-04T00:00:44.321Z,31.40
2018-12-04T00:03:12.560Z,32.40
2018-12-04T00:05:40.764Z,31.63
2018-12-04T00:08:08.975Z,31.20
2018-12-04T00:10:37.265Z,33.90
2018-12-04T00:13:05.470Z,37.17
2018-12-04T00:15:33.633Z,33.10
2018-12-04T00:18:01.842Z,37.33
2018-12-04T00:20:30.055Z,36.90
2018-12-04T00:22:58.222Z,39.30
2018-12-04T00:25:26.400Z,36.30
2018-12-04T00:27:54.640Z,37.10
2018-12-04T00:30:22.820Z,35.67
2018-12-04T00:32:50.972Z,36.27
2018-12-04T00:35:19.174Z,40.33
2018-12-04T00:37:47.345Z,39.80
2018-12-04T00:40:15.522Z,43.97
2018-12-04T00:42:43.761Z,42.23
2018-12-04T00:45:12.026Z,46.37
2018-12-04T00:53:34.743Z,40.07
2018-12-04T00:56:02.939Z,38.67
2018-12-04T00:58:31.104Z,40.77
2018-12-04T01:00:59.391Z,40.90
2018-12-04T01:03:27.566Z,39.80
2018-12-04T01:05:55.739Z,41.30
2018-12-04T01:08:23.945Z,40.90
2018-12-04T01:10:52.268Z,38.97
2018-12-04T01:13:20.437Z,46.50
2018-12-04T01:15:48.691Z,47.27
2018-12-04T01:18:16.968Z,48.27
2018-12-04T01:20:45.128Z,48.10
2018-12-04T01:23:13.324Z,48.00
2018-12-04T01:25:41.529Z,46.50
2018-12-04T01:28:09.866Z,46.20
2018-12-04T01:30:38.034Z,52.37
2018-12-04T01:33:06.208Z,46.57
2018-12-04T01:35:34.414Z,45.33
2018-12-04T01:38:02.577Z,47.90
2018-12-04T01:40:30.809Z,45.47
2018-12-04T01:42:58.978Z,44.67
2018-12-04T01:45:27.192Z,46.53
2018-12-04T01:47:55.382Z,48.67
2018-12-04T01:50:23.558Z,50.33
2018-12-04T01:52:51.748Z,46.17
2018-12-04T01:55:19.928Z,47.80
2018-12-04T01:57:48.154Z,47.03
2018-12-04T02:00:16.320Z,44.07
2018-12-04T02:02:44.527Z,45.27
2018-12-04T02:05:12.742Z,41.87
2018-12-04T02:07:40.949Z,50.43
2018-12-04T02:10:09.155Z,50.27
2018-12-04T02:12:37.362Z,47.37
2018-12-04T02:15:05.695Z,45.97
2018-12-04T02:17:33.887Z,46.63
2018-12-04T02:20:02.126Z,45.10
2018-12-04T02:22:30.321Z,43.10
2018-12-04T02:24:58.526Z,41.77
2018-12-04T02:27:26.704Z,47.57
2018-12-04T02:29:54.899Z,43.97
2018-12-04T02:32:23.061Z,44.90
2018-12-04T02:34:51.234Z,44.60
2018-12-04T02:37:19.468Z,48.03
2018-12-04T02:39:47.638Z,49.47
2018-12-04T02:42:17.755Z,43.37
2018-12-04T02:44:45.943Z,46.50
2018-12-04T02:47:14.118Z,47.17
2018-12-04T02:49:42.354Z,44.03
2018-12-04T02:52:10.552Z,44.83
2018-12-04T02:54:38.737Z,42.87
2018-12-04T02:57:06.987Z,43.20
2018-12-04T02:59:35.326Z,44.93
2018-12-04T03:02:03.833Z,43.40
2018-12-04T03:04:31.999Z,46.30
2018-12-04T03:07:00.196Z,47.23
2018-12-04T03:09:28.372Z,45.33
2018-12-04T03:11:56.608Z,43.03
2018-12-04T03:14:24.850Z,41.67
2018-12-04T03:16:53.075Z,40.87
2018-12-04T03:19:21.255Z,37.63
2018-12-04T03:21:49.425Z,39.47
2018-12-04T03:24:17.621Z,41.07
2018-12-04T03:26:46.305Z,35.00
2018-12-04T03:29:14.461Z,35.20
2018-12-04T03:31:42.642Z,36.63
2018-12-04T03:34:10.868Z,38.97
2018-12-04T03:36:39.029Z,35.93
2018-12-04T03:39:07.868Z,34.97
2018-12-04T03:41:36.091Z,35.07
2018-12-04T03:44:04.335Z,38.10
2018-12-04T03:46:32.535Z,33.70
2018-12-04T03:49:00.744Z,35.60
2018-12-04T03:51:28.915Z,35.67
2018-12-04T03:53:57.114Z,27.17
2018-12-04T03:56:25.283Z,25.90
2018-12-04T03:58:53.522Z,27.33
2018-12-04T04:01:21.732Z,25.90
2018-12-04T04:03:49.961Z,25.23
2018-12-04T04:06:18.140Z,23.90
2018-12-04T04:08:46.339Z,24.50
2018-12-04T04:11:14.497Z,24.50
2018-12-04T04:13:42.667Z,24.63
2018-12-04T04:16:10.905Z,22.97
2018-12-04T04:18:39.070Z,24.17
2018-12-04T04:21:07.285Z,21.40
2018-12-04T04:23:35.481Z,22.00
2018-12-04T04:26:03.758Z,20.37
2018-12-04T04:28:31.971Z,20.37
2018-12-04T04:31:00.131Z,20.23
2018-12-04T04:33:28.296Z,18.03
2018-12-04T04:35:58.091Z,19.37
2018-12-04T04:38:26.273Z,18.57
2018-12-04T04:40:54.522Z,17.93
2018-12-04T04:43:22.690Z,17.63
2018-12-04T04:45:50.867Z,16.80
2018-12-04T04:48:19.061Z,16.70
2018-12-04T04:50:47.261Z,17.60
2018-12-04T04:53:15.439Z,16.23
2018-12-04T04:55:43.666Z,18.00
2018-12-04T04:58:11.832Z,16.00
2018-12-04T05:00:40.042Z,18.03
2018-12-04T05:03:08.259Z,17.10
2018-12-04T05:05:37.446Z,16.30
2018-12-04T05:08:05.618Z,16.67
2018-12-04T05:10:33.823Z,15.43
2018-12-04T05:13:02.013Z,16.43
2018-12-04T05:15:30.196Z,13.77
2018-12-04T05:17:58.429Z,13.70
2018-12-04T05:20:26.649Z,14.47
2018-12-04T05:22:54.810Z,15.37
2018-12-04T05:25:23.118Z,16.07
2018-12-04T05:27:51.316Z,17.27
2018-12-04T05:30:19.596Z,17.07
2018-12-04T05:32:47.841Z,15.77
2018-12-04T05:35:16.039Z,11.73
2018-12-04T05:37:44.212Z,13.67
2018-12-04T05:40:12.409Z,14.67
2018-12-04T05:42:40.589Z,13.77
2018-12-04T05:45:08.845Z,15.17
2018-12-04T05:47:37.013Z,16.90
2018-12-04T05:50:06.119Z,17.63
2018-12-04T05:52:35.219Z,19.63
2018-12-04T05:55:03.531Z,17.37
2018-12-04T05:57:31.701Z,15.50
2018-12-04T05:59:59.878Z,14.93
2018-12-04T06:02:28.077Z,16.00
2018-12-04T06:04:56.281Z,19.40
2018-12-04T06:07:24.521Z,16.93
2018-12-04T06:09:52.746Z,19.50
2018-12-04T06:12:20.972Z,19.40
2018-12-04T06:14:49.161Z,21.13
2018-12-04T06:17:17.471Z,17.80
2018-12-04T06:19:45.626Z,15.97
2018-12-04T06:22:13.825Z,16.70
2018-12-04T06:24:42.083Z,16.90
2018-12-04T06:27:10.391Z,14.33
2018-12-04T06:29:38.560Z,15.13
2018-12-04T06:32:06.734Z,14.50
2018-12-04T06:34:34.973Z,14.67
2018-12-04T06:37:03.142Z,15.40
2018-12-04T06:39:31.366Z,18.23
2018-12-04T06:41:59.580Z,17.40
2018-12-04T06:44:27.803Z,19.07
2018-12-04T06:46:55.973Z,19.17
2018-12-04T06:49:24.211Z,19.40
2018-12-04T06:51:52.406Z,18.10
2018-12-04T06:54:20.620Z,17.90
2018-12-04T06:56:48.855Z,18.53
2018-12-04T06:59:17.006Z,14.53
2018-12-04T07:01:45.175Z,8.67
2018-12-04T07:04:13.357Z,7.70
2018-12-04T07:06:41.617Z,11.27
2018-12-04T07:09:09.820Z,7.83
2018-12-04T07:11:37.983Z,20.63
2018-12-04T07:14:06.145Z,24.43
2018-12-04T07:16:34.341Z,27.00
2018-12-04T07:19:02.573Z,27.70
2018-12-04T07:21:30.746Z,25.77
2018-12-04T07:23:58.959Z,26.43
2018-12-04T07:26:27.187Z,24.50
2018-12-04T07:28:55.389Z,22.60
2018-12-04T07:31:23.560Z,20.47
2018-12-04T07:33:51.769Z,18.43
2018-12-04T07:36:19.980Z,17.90
2018-12-04T07:38:48.162Z,17.50
2018-12-04T07:41:16.377Z,16.93
2018-12-04T07:43:44.578Z,18.20
2018-12-04T07:46:12.849Z,17.07
2018-12-04T07:48:41.055Z,17.13
2018-12-04T07:51:09.294Z,15.70
2018-12-04T07:53:37.504Z,14.60
2018-12-04T07:56:05.706Z,13.80
2018-12-04T07:58:33.886Z,18.13
2018-12-04T08:01:02.089Z,14.60
2018-12-04T08:03:30.262Z,14.53
2018-12-04T08:06:00.416Z,15.90
2018-12-04T08:08:28.606Z,19.10
2018-12-04T08:10:56.810Z,20.43
2018-12-04T08:13:25.124Z,17.83
2018-12-04T08:15:53.292Z,19.50
2018-12-04T08:18:21.465Z,15.97
2018-12-04T08:20:49.651Z,12.83
2018-12-04T08:23:17.854Z,12.60
2018-12-04T08:25:46.105Z,14.60
2018-12-04T08:28:14.321Z,11.27
2018-12-04T08:30:42.537Z,10.90
2018-12-04T08:33:10.697Z,10.70
2018-12-04T08:35:38.850Z,9.93
2018-12-04T08:38:07.117Z,10.13
2018-12-04T08:40:35.282Z,9.37
2018-12-04T08:43:03.472Z,9.13
2018-12-04T08:45:32.408Z,8.47
2018-12-04T08:48:00.568Z,8.30
2018-12-04T08:50:28.734Z,7.80
2018-12-04T08:52:56.935Z,6.03
2018-12-04T08:55:25.140Z,6.60
2018-12-04T08:58:13.104Z,6.13
2018-12-04T09:00:41.413Z,5.90
2018-12-04T09:03:09.576Z,6.40
2018-12-04T09:05:38.385Z,5.00
2018-12-04T09:08:09.376Z,3.40
2018-12-04T09:10:36.757Z,3.93
2018-12-04T09:13:05.041Z,3.70
2018-12-04T09:15:33.248Z,4.87
2018-12-04T09:18:01.422Z,3.80
2018-12-04T09:20:29.696Z,3.03
2018-12-04T09:22:58.578Z,2.80
2018-12-04T09:25:27.080Z,3.40
2018-12-04T09:27:55.884Z,3.23
2018-12-04T09:30:24.234Z,3.47
2018-12-04T09:32:52.397Z,2.73
2018-12-04T09:35:20.665Z,2.90
2018-12-04T09:37:48.829Z,2.20
2018-12-04T09:40:16.993Z,2.40
2018-12-04T09:42:45.269Z,2.70
2018-12-04T09:45:13.564Z,2.90
2018-12-04T09:47:41.836Z,2.87
2018-12-04T09:50:10.060Z,2.83
2018-12-04T09:52:38.308Z,2.50
2018-12-04T09:55:06.855Z,3.17
2018-12-04T09:57:35.051Z,2.80
2018-12-04T10:00:04.294Z,3.27
2018-12-04T10:02:32.461Z,3.37
2018-12-04T10:05:00.625Z,2.80
2018-12-04T10:07:28.889Z,3.30
2018-12-04T10:10:00.583Z,2.90
2018-12-04T10:12:27.302Z,3.87
2018-12-04T10:14:55.499Z,2.90
2018-12-04T10:17:23.688Z,2.87
2018-12-04T10:19:51.882Z,3.00
2018-12-04T10:22:20.095Z,2.50
2018-12-04T10:24:48.330Z,2.83
2018-12-04T10:27:16.547Z,2.43
2018-12-04T10:29:44.770Z,2.70
2018-12-04T10:32:12.963Z,2.77
2018-12-04T10:34:41.129Z,3.80
2018-12-04T10:37:09.391Z,3.47
2018-12-04T10:39:37.562Z,2.27
2018-12-04T10:42:05.789Z,3.40
2018-12-04T10:44:34.042Z,2.77
2018-12-04T10:47:02.266Z,4.13
2018-12-04T10:49:30.442Z,3.20
2018-12-04T10:51:58.629Z,3.67
2018-12-04T10:54:26.824Z,4.33
2018-12-04T10:56:55.089Z,3.27
2018-12-04T10:59:23.338Z,3.53
2018-12-04T11:04:53.098Z,3.87
2018-12-04T11:07:21.312Z,3.13
2018-12-04T11:09:49.508Z,3.10
2018-12-04T11:12:17.760Z,3.67
2018-12-04T11:14:45.924Z,3.10
2018-12-04T11:17:14.157Z,3.20
2018-12-04T11:19:42.311Z,2.33
2018-12-04T11:22:10.474Z,3.50
2018-12-04T11:24:38.675Z,2.90
2018-12-04T11:27:06.867Z,3.70
2018-12-04T11:29:35.236Z,3.57
2018-12-04T11:32:03.492Z,3.27
2018-12-04T11:34:31.725Z,3.30
2018-12-04T11:36:59.987Z,3.70
2018-12-04T11:39:28.157Z,3.70
2018-12-04T11:41:56.379Z,4.13
2018-12-04T11:44:24.553Z,3.87
2018-12-04T11:46:52.730Z,3.80
2018-12-04T11:49:21.105Z,4.33
2018-12-04T11:51:49.251Z,3.50
2018-12-04T11:54:17.411Z,3.00
2018-12-04T11:56:45.649Z,2.80
2018-12-04T11:59:13.933Z,3.37
2018-12-04T12:01:42.100Z,3.77
2018-12-04T12:04:10.309Z,3.50
2018-12-04T12:06:38.509Z,3.33
2018-12-04T12:09:08.717Z,3.77
2018-12-04T12:11:36.924Z,3.80
2018-12-04T12:14:05.152Z,2.80
2018-12-04T12:16:33.405Z,2.57
2018-12-04T12:19:01.600Z,2.13
2018-12-04T12:21:29.768Z,2.43
2018-12-04T12:23:57.981Z,2.90
2018-12-04T12:26:26.149Z,3.07
2018-12-04T12:28:54.309Z,2.73
2018-12-04T12:31:22.509Z,2.67
2018-12-04T12:33:50.674Z,2.23
2018-12-04T12:36:18.958Z,3.10
2018-12-04T12:38:47.157Z,2.33
2018-12-04T12:41:15.411Z,2.73
2018-12-04T12:43:44.530Z,2.60
2018-12-04T12:46:12.999Z,2.40
2018-12-04T12:48:41.289Z,2.40
2018-12-04T12:51:09.487Z,3.07
2018-12-04T12:53:37.684Z,2.60
2018-12-04T12:56:05.883Z,2.73
2018-12-04T12:58:34.088Z,3.30
2018-12-04T13:01:02.312Z,4.30
2018-12-04T13:03:30.475Z,2.40
2018-12-04T13:05:58.682Z,3.03
2018-12-04T13:08:31.977Z,2.93
2018-12-04T13:11:00.191Z,2.90
2018-12-04T13:13:28.644Z,5.17
2018-12-04T13:15:57.096Z,5.40
2018-12-04T13:18:25.339Z,3.60
2018-12-04T13:20:53.575Z,7.83
2018-12-04T13:23:21.789Z,5.07
2018-12-04T13:25:49.998Z,4.57
2018-12-04T13:28:18.159Z,3.50
2018-12-04T13:30:46.444Z,3.70
2018-12-04T13:33:14.656Z,2.67
2018-12-04T13:35:42.858Z,4.80
2018-12-04T13:38:11.077Z,3.27
2018-12-04T13:40:39.683Z,2.57
2018-12-04T13:43:07.859Z,2.80
2018-12-04T13:45:36.052Z,4.30
2018-12-04T13:48:04.270Z,3.30
2018-12-04T13:50:32.441Z,3.10
2018-12-04T13:53:00.650Z,2.90
2018-12-04T13:55:28.855Z,4.10
2018-12-04T13:57:57.006Z,3.23
2018-12-04T14:00:25.218Z,3.80
2018-12-04T14:02:53.405Z,2.77
2018-12-04T14:05:21.622Z,3.30
2018-12-04T14:07:49.869Z,2.93
2018-12-04T14:10:18.171Z,2.60
2018-12-04T14:12:46.346Z,2.90
2018-12-04T14:15:14.891Z,4.07
2018-12-04T14:17:43.110Z,4.43
2018-12-04T14:20:11.323Z,3.50
2018-12-04T14:22:39.573Z,4.00
2018-12-04T14:25:07.873Z,5.97
2018-12-04T14:27:36.075Z,3.93
2018-12-04T14:30:08.300Z,4.43
2018-12-04T14:32:36.555Z,4.10
2018-12-04T14:35:05.110Z,3.93
2018-12-04T14:37:33.351Z,4.00
2018-12-04T14:40:01.585Z,3.97
2018-12-04T14:42:30.018Z,3.90
2018-12-04T14:44:58.261Z,4.57
2018-12-04T14:47:26.465Z,4.93
2018-12-04T14:49:54.832Z,3.70
2018-12-04T14:52:23.125Z,3.90
2018-12-04T14:54:51.407Z,4.50
2018-12-04T14:57:19.618Z,3.53
2018-12-04T14:59:47.991Z,3.97
2018-12-04T15:02:16.271Z,4.73
2018-12-04T15:04:44.434Z,5.00
2018-12-04T15:07:12.679Z,6.00
2018-12-04T15:09:41.047Z,5.40
2018-12-04T15:12:09.231Z,5.30
2018-12-04T15:14:37.444Z,5.03
2018-12-04T15:17:05.604Z,5.10
2018-12-04T15:19:33.906Z,6.20
2018-12-04T15:22:02.130Z,14.27
2018-12-04T15:24:30.303Z,12.57
2018-12-04T15:26:58.564Z,15.13
2018-12-04T15:29:26.783Z,10.57
2018-12-04T15:31:54.951Z,17.07
2018-12-04T15:34:23.157Z,9.77
2018-12-04T15:36:56.524Z,10.77
2018-12-04T15:39:21.669Z,6.80
2018-12-04T15:41:49.920Z,9.37
2018-12-04T15:44:18.621Z,9.10
2018-12-04T15:46:46.827Z,11.67
2018-12-04T15:49:15.009Z,10.83
2018-12-04T15:51:43.385Z,8.00
2018-12-04T15:54:11.987Z,11.40
2018-12-04T15:56:40.233Z,11.20
2018-12-04T15:59:08.459Z,10.30
2018-12-04T16:01:36.619Z,8.73
2018-12-04T16:04:04.922Z,9.53
2018-12-04T16:06:33.268Z,8.70
2018-12-04T16:09:01.512Z,9.83
2018-12-04T16:11:29.685Z,13.47
2018-12-04T16:13:57.887Z,22.13
2018-12-04T16:16:26.074Z,26.60
2018-12-04T16:18:54.288Z,13.57
2018-12-04T16:21:22.492Z,23.00
2018-12-04T16:23:50.660Z,14.30
2018-12-04T16:26:18.825Z,13.30
2018-12-04T16:28:47.033Z,14.37
2018-12-04T16:31:15.209Z,14.33
2018-12-04T16:33:43.937Z,12.30
2018-12-04T16:36:12.292Z,8.17
2018-12-04T16:38:40.459Z,8.37
2018-12-04T16:41:08.769Z,6.37
2018-12-04T16:43:37.175Z,5.90
2018-12-04T16:46:05.425Z,6.50
2018-12-04T16:48:33.614Z,6.50
2018-12-04T16:51:07.235Z,6.20
2018-12-04T16:53:35.476Z,6.70
2018-12-04T16:56:03.634Z,7.80
2018-12-04T16:58:32.183Z,8.47
2018-12-04T17:01:00.371Z,6.10
2018-12-04T17:03:28.584Z,6.90
2018-12-04T17:05:56.793Z,6.27
2018-12-04T17:08:24.975Z,6.40
2018-12-04T17:10:53.153Z,6.47
2018-12-04T17:13:21.413Z,6.37
2018-12-04T17:15:50.070Z,7.00
2018-12-04T17:18:18.236Z,7.23
2018-12-04T17:20:46.452Z,7.70
2018-12-04T17:23:37.765Z,8.10
2018-12-04T17:26:06.091Z,8.30
2018-12-04T17:28:34.288Z,8.77
2018-12-04T17:31:02.620Z,9.73
2018-12-04T17:33:30.835Z,7.97
2018-12-04T17:35:59.028Z,8.70
2018-12-04T17:38:27.227Z,8.70
2018-12-04T17:40:55.504Z,8.20
2018-12-04T17:43:23.756Z,9.77
2018-12-04T17:45:51.970Z,8.47
2018-12-04T17:48:20.561Z,9.37
2018-12-04T17:50:48.776Z,9.00
2018-12-04T17:53:17.051Z,8.90
2018-12-04T17:55:45.262Z,7.40
2018-12-04T17:58:13.454Z,7.10
2018-12-04T18:00:41.702Z,6.67
2018-12-04T18:03:09.980Z,7.33
2018-12-04T18:05:38.145Z,7.60
2018-12-04T18:08:06.333Z,7.30
2018-12-04T18:10:34.537Z,7.27
2018-12-04T18:13:02.759Z,7.50
2018-12-04T18:15:30.929Z,7.00
2018-12-04T18:17:59.161Z,7.23
2018-12-04T18:20:27.338Z,7.80
2018-12-04T18:22:55.516Z,6.40
2018-12-04T18:25:23.882Z,8.60
2018-12-04T18:27:52.049Z,7.50
2018-12-04T18:30:20.247Z,7.50
2018-12-04T18:32:48.433Z,6.93
2018-12-04T18:35:17.510Z,6.63
2018-12-04T18:37:45.695Z,8.23
2018-12-04T18:40:14.009Z,6.53
2018-12-04T18:42:42.217Z,6.43
2018-12-04T18:45:10.436Z,5.70
2018-12-04T18:47:38.661Z,6.83
2018-12-04T18:50:08.126Z,6.03
2018-12-04T18:52:36.527Z,6.77
2018-12-04T18:55:04.940Z,5.80
2018-12-04T18:57:33.160Z,6.10
2018-12-04T19:00:01.450Z,6.03
2018-12-04T19:02:29.698Z,5.90
2018-12-04T19:04:57.921Z,6.50
2018-12-04T19:07:26.262Z,7.37
2018-12-04T19:09:54.481Z,6.20
2018-12-04T19:12:22.706Z,6.30
2018-12-04T19:14:50.881Z,5.90
2018-12-04T19:17:19.092Z,7.27
2018-12-04T19:19:47.362Z,10.77
2018-12-04T19:22:15.596Z,8.03
2018-12-04T19:24:44.930Z,9.53
2018-12-04T19:27:13.707Z,6.00
2018-12-04T19:29:41.919Z,6.17
2018-12-04T19:32:10.161Z,5.50
2018-12-04T19:34:39.245Z,6.63
2018-12-04T19:37:08.447Z,6.17
2018-12-04T19:39:37.165Z,6.17
2018-12-04T19:42:05.385Z,4.53
2018-12-04T19:44:35.135Z,5.00
2018-12-04T19:47:03.711Z,5.97
2018-12-04T19:49:31.870Z,4.60
2018-12-04T19:52:00.056Z,5.70
2018-12-04T19:54:28.322Z,5.60
2018-12-04T19:56:56.553Z,5.73
2018-12-04T19:59:24.747Z,5.60
2018-12-04T20:01:52.941Z,7.50
2018-12-04T20:04:21.242Z,5.17
2018-12-04T20:06:50.340Z,5.60
2018-12-04T20:09:18.607Z,4.87
2018-12-04T20:11:46.955Z,5.17
2018-12-04T20:14:15.128Z,5.47
2018-12-04T20:16:43.297Z,5.07
2018-12-04T20:19:11.510Z,4.93
2018-12-04T20:21:39.735Z,4.93
2018-12-04T20:24:07.931Z,6.33
2018-12-04T20:26:36.152Z,5.00
2018-12-04T20:29:04.475Z,5.47
2018-12-04T20:31:32.660Z,5.47
2018-12-04T20:34:00.865Z,4.90
2018-12-04T20:36:29.048Z,6.00
2018-12-04T20:38:57.374Z,5.57
2018-12-04T20:41:26.967Z,5.43
2018-12-04T20:43:55.374Z,5.80
2018-12-04T20:46:23.805Z,5.63
2018-12-04T20:48:52.000Z,5.80
2018-12-04T20:51:20.865Z,8.67
2018-12-04T20:53:49.599Z,7.63
2018-12-04T20:56:17.902Z,7.90
2018-12-04T20:58:46.319Z,8.20
2018-12-04T21:01:14.552Z,6.57
2018-12-04T21:03:42.771Z,9.07
2018-12-04T21:06:10.943Z,9.57
2018-12-04T21:08:39.199Z,7.90
2018-12-04T21:11:07.462Z,11.93
2018-12-04T21:13:36.434Z,12.00
2018-12-04T21:16:05.609Z,10.00
2018-12-04T21:18:34.114Z,9.57
2018-12-04T21:21:02.374Z,8.30
2018-12-04T21:23:30.544Z,13.00
2018-12-04T21:25:59.437Z,9.17
2018-12-04T21:28:27.614Z,8.53
2018-12-04T21:31:01.313Z,9.30
2018-12-04T21:36:42.013Z,9.07
2018-12-04T21:39:24.151Z,8.13
2018-12-04T21:42:00.406Z,8.20
2018-12-04T21:44:34.601Z,9.33
2018-12-04T21:50:07.857Z,10.53
2018-12-04T21:52:36.028Z,6.90
2018-12-04T21:55:04.937Z,10.73
2018-12-04T21:57:33.184Z,8.30
2018-12-04T22:00:01.362Z,9.23
2018-12-04T22:02:29.543Z,7.37
2018-12-04T22:04:57.768Z,9.40
2018-12-04T22:07:25.932Z,7.20
2018-12-04T22:09:54.110Z,10.20
2018-12-04T22:12:22.334Z,9.87
2018-12-04T22:14:50.505Z,7.30
2018-12-04T22:17:18.677Z,8.93
2018-12-04T22:19:46.884Z,7.87
2018-12-04T22:22:15.064Z,6.90
2018-12-04T22:24:43.228Z,7.33
2018-12-04T22:27:11.467Z,8.57
2018-12-04T22:29:39.645Z,6.30
2018-12-04T22:32:07.814Z,7.57
2018-12-04T22:34:36.016Z,7.10
2018-12-04T22:37:04.261Z,7.30
2018-12-04T22:39:32.419Z,6.70
2018-12-04T22:42:00.633Z,7.60
2018-12-04T22:44:28.844Z,5.80
2018-12-04T22:46:57.087Z,6.00
2018-12-04T22:49:25.339Z,5.80
2018-12-04T22:51:53.505Z,6.10
2018-12-04T22:54:21.721Z,6.63
2018-12-04T22:56:49.935Z,5.60
2018-12-04T22:59:18.105Z,5.20
2018-12-04T23:01:46.370Z,5.87
2018-12-04T23:04:14.663Z,4.40
2018-12-04T23:06:42.871Z,6.27
2018-12-04T23:09:11.121Z,6.80
2018-12-04T23:11:39.815Z,5.90
2018-12-04T23:14:08.060Z,6.20
2018-12-04T23:16:36.473Z,6.10
2018-12-04T23:19:05.475Z,5.93
2018-12-04T23:21:33.637Z,6.97
2018-12-04T23:24:01.804Z,7.10
2018-12-04T23:26:30.041Z,7.97
2018-12-04T23:28:58.196Z,7.70
2018-12-04T23:31:26.433Z,7.30
2018-12-04T23:33:54.659Z,7.70
2018-12-04T23:36:22.867Z,8.43
2018-12-04T23:38:51.040Z,7.20
2018-12-04T23:41:19.245Z,7.80
2018-12-04T23:43:47.418Z,6.60
2018-12-04T23:46:15.642Z,7.67
2018-12-04T23:48:44.025Z,6.13
2018-12-04T23:51:12.188Z,6.00
2018-12-04T23:53:40.356Z,7.50
2018-12-04T23:56:08.555Z,7.43
2018-12-04T23:58:36.731Z,6.53
